Terminal Aerodrome Forecast
Issued by NWS Charleston, WV

Current Version | Previous Version | Graphics & Text | Print | Product List | Glossary On
Versions: 1 2 3 4 5 6 7 8 9 10 11 12 13 14 15 16 17 18 19 20 21 22
668
FTUS41 KRLX 221731
TAFPKB
TAF
KPKB 221731Z 2218/2318 25006G15KT P6SM SCT050 BKN200
     FM230200 21007KT P6SM VCTS OVC060CB
     FM230400 19009KT 4SM SHRA VCTS OVC040CB
     FM230900 21009KT 4SM SHRA VCTS OVC027CB
     FM231100 21008KT P6SM OVC025
     FM231300 21008KT P6SM OVC017
     FM231500 22011G18KT 3SM SHRA OVC030=

USA.gov is the U.S. government's official web portal to all federal, state and local government web resources and services.